Cabernet Sky — WDH7244 — position and weather

sailwx.info

Track history (hours):
 
Tides and Currents Weather Stations Pressure Air Temp Water Temp Dewpoint Dewpoint Depression Visibility Wind Speed Wind Dir Waves Ship Positions

Cabernet Sky

Owner: Buckner, Charles A, Dana Point, CA. More information available from US FCC via Universal Licensing System and Coast Guard Vessel Documentation Center.

Last reported at 2017-Oct-15 21:55 UTC. Time now 2017-Oct-16 22:47 UTC.
Position N 33°45' W 118°07'.

Length 16 m.

Type: Sailing vessel. MMSI: 367646260.

Date/timePositionNaut miles runAvg speedWind from/ knotsBaromVisibWave heightAir tempDewpointWater temp
2017-Oct-15 21:55N 33°45' W 118°07'3 5.6
2017-Oct-15 21:25N 33°43' W 118°09'3 7.1
2017-Oct-15 20:59N 33°41' W 118°12'20 7.0
2017-Oct-15 18:11N 33°28' W 118°30'1 0.1
2017-Oct-14 21:51N 33°27' W 118°29'2 5.6
2017-Oct-14 21:30N 33°26' W 118°27'3 6.0
2017-Oct-14 21:00N 33°25' W 118°23'2 3.3
2017-Oct-14 20:30N 33°24' W 118°22'0 0.4
2017-Oct-14 20:00N 33°24' W 118°22'0 0.0
2017-Oct-14 19:30N 33°24' W 118°22'0 0.0
2017-Oct-14 17:33N 33°24' W 118°22'0 0.0
2017-Oct-14 17:21N 33°24' W 118°22'0 0.0
2017-Oct-14 16:09N 33°24' W 118°22'0 0.0
2017-Oct-14 14:57N 33°24' W 118°22'0 0.0
2017-Oct-14 14:21N 33°24' W 118°22'0 0.0
2017-Oct-14 13:51N 33°24' W 118°22'0 0.0
2017-Oct-14 13:30N 33°24' W 118°22'0 0.0
2017-Oct-14 13:00N 33°24' W 118°22'0 0.0
2017-Oct-14 12:30N 33°24' W 118°22'0 0.0
2017-Oct-14 12:00N 33°24' W 118°22'0 0.0
2017-Oct-14 11:27N 33°24' W 118°22'0 0.0
2017-Oct-14 10:54N 33°24' W 118°22'0 0.0
2017-Oct-14 10:30N 33°24' W 118°22'0 0.0
2017-Oct-14 09:51N 33°24' W 118°22'0 0.0
2017-Oct-14 09:30N 33°24' W 118°22'0 0.0
2017-Oct-14 09:00N 33°24' W 118°22'0 0.0
2017-Oct-14 08:30N 33°24' W 118°22'0 0.0
2017-Oct-14 08:00N 33°24' W 118°22'0 0.0
2017-Oct-14 07:26N 33°24' W 118°22'0 0.0
2017-Oct-14 06:53N 33°24' W 118°22'0 0.0
2017-Oct-14 05:41N 33°24' W 118°22'0 0.0
2017-Oct-14 05:23N 33°24' W 118°22'0 0.0
2017-Oct-14 04:59N 33°24' W 118°22'0 0.0
2017-Oct-14 04:29N 33°24' W 118°22'0 0.0
2017-Oct-14 03:59N 33°24' W 118°22'0 0.0
2017-Oct-14 03:27N 33°24' W 118°22'0 0.0
2017-Oct-14 03:00N 33°24' W 118°22'0 0.0
2017-Oct-14 02:27N 33°24' W 118°22'0 0.0
2017-Oct-14 01:51N 33°24' W 118°22'0 0.0
2017-Oct-14 01:03N 33°24' W 118°22'0 0.1
2017-Oct-14 00:57N 33°24' W 118°22'0 0.1
2017-Oct-13 23:39N 33°24' W 118°22'1 4.9
2017-Oct-13 23:30N 33°25' W 118°21'3 5.2
2017-Oct-13 23:00N 33°27' W 118°20'4 6.2
2017-Oct-13 22:23N 33°30' W 118°18'3 6.9
2017-Oct-13 21:59N 33°33' W 118°16'3 5.9
2017-Oct-13 21:29N 33°35' W 118°14'3 4.1
2017-Oct-13 20:51N 33°37' W 118°12'1 4.0
2017-Oct-13 20:30N 33°38' W 118°11'2 4.5
2017-Oct-13 19:57N 33°40' W 118°10'2 4.5
2017-Oct-13 19:27N 33°42' W 118°09'3 0.5
2017-Oct-13 12:34N 33°45' W 118°07'0 0.0
2017-Oct-13 11:10N 33°45' W 118°07'0 0.0
2017-Oct-13 10:52N 33°45' W 118°07'0 0.0
2017-Oct-11 23:22N 33°45' W 118°07'0 0.0
2017-Oct-11 22:52N 33°45' W 118°07'0 0.0
2017-Oct-10 23:58N 33°45' W 118°07'0 0.0
2017-Oct-10 23:28N 33°45' W 118°07'0 0.0
2017-Oct-10 22:58N 33°45' W 118°07'0 0.0
2017-Oct-10 22:28N 33°45' W 118°07'0 0.0
2017-Oct-10 21:55N 33°45' W 118°07'0 0.0
2017-Oct-10 21:28N 33°45' W 118°07'0 0.0
2017-Oct-10 20:55N 33°45' W 118°07'0 0.0
2017-Oct-10 20:25N 33°45' W 118°07'0 0.0
2017-Oct-10 19:58N 33°45' W 118°07'0 0.0
2017-Oct-10 19:28N 33°45' W 118°07'0 0.0
2017-Oct-10 18:55N 33°45' W 118°07'0 0.0
2017-Oct-10 18:28N 33°45' W 118°07'0 0.0
2017-Oct-10 17:58N 33°45' W 118°07'0 0.0
2017-Oct-10 17:28N 33°45' W 118°07'0 0.0
2017-Oct-10 16:58N 33°45' W 118°07'0 0.0
2017-Oct-10 16:28N 33°45' W 118°07'0 0.0
2017-Oct-10 15:58N 33°45' W 118°07'0 0.0
2017-Oct-10 15:28N 33°45' W 118°07'0 0.0
2017-Oct-10 14:58N 33°45' W 118°07'0 0.0
2017-Oct-10 13:58N 33°45' W 118°07'0 0.0
2017-Oct-10 13:10N 33°45' W 118°07'0 0.0
2017-Oct-10 12:55N 33°45' W 118°07'0 0.0
2017-Oct-10 12:28N 33°45' W 118°07'0 0.0
2017-Oct-10 11:58N 33°45' W 118°07'0 0.0
2017-Oct-10 11:28N 33°45' W 118°07'0 0.0
2017-Oct-10 10:58N 33°45' W 118°07'0 0.0
2017-Oct-10 10:28N 33°45' W 118°07'0 0.0
2017-Oct-10 09:58N 33°45' W 118°07'0 0.0
2017-Oct-10 09:31N 33°45' W 118°07'0 0.0
2017-Oct-10 08:28N 33°45' W 118°07'0 0.0
2017-Oct-10 07:49N 33°45' W 118°07'0 0.0
2017-Oct-10 07:28N 33°45' W 118°07'0 0.0
2017-Oct-10 06:52N 33°45' W 118°07'0 0.0
2017-Oct-10 06:22N 33°45' W 118°07'0 0.0
2017-Oct-10 05:58N 33°45' W 118°07'0 0.0
2017-Oct-10 05:28N 33°45' W 118°07'0 0.0
2017-Oct-10 04:55N 33°45' W 118°07'0 0.0
2017-Oct-10 04:28N 33°45' W 118°07'0 0.0
2017-Oct-10 03:58N 33°45' W 118°07'0 0.0
2017-Oct-10 03:28N 33°45' W 118°07'0 0.0
2017-Oct-10 02:58N 33°45' W 118°07'0 0.0
2017-Oct-10 02:28N 33°45' W 118°07'0 0.0
2017-Oct-10 01:58N 33°45' W 118°07'0 0.0
2017-Oct-10 01:28N 33°45' W 118°07'0 0.0
2017-Oct-10 00:58N 33°45' W 118°07'0 0.0
2017-Oct-10 00:28N 33°45' W 118°07'0 0.0
2017-Oct-09 23:58N 33°45' W 118°07'0 0.0
2017-Oct-09 23:28N 33°45' W 118°07'0 0.0
2017-Oct-09 22:58N 33°45' W 118°07'0 0.0
2017-Oct-09 22:28N 33°45' W 118°07'0 0.0
2017-Oct-08 15:43N 33°45' W 118°07'0 0.0
2017-Oct-08 15:28N 33°45' W 118°07'0 0.0
2017-Oct-08 14:58N 33°45' W 118°07'0 0.0
2017-Oct-08 14:28N 33°45' W 118°07'0 0.0
2017-Oct-08 11:37N 33°45' W 118°07'0 0.0
2017-Oct-08 11:25N 33°45' W 118°07'0 0.0
2017-Oct-08 10:58N 33°45' W 118°07'0 0.0
2017-Oct-08 10:25N 33°45' W 118°07'0 0.0
2017-Oct-08 09:58N 33°45' W 118°07'0 0.0
2017-Oct-08 09:28N 33°45' W 118°07'0 0.0
2017-Oct-08 07:58N 33°45' W 118°07'0 0.0
2017-Oct-08 07:28N 33°45' W 118°07'0 0.0
2017-Oct-08 06:58N 33°45' W 118°07'0 0.0
2017-Oct-08 06:28N 33°45' W 118°07'0 0.0
2017-Oct-08 05:58N 33°45' W 118°07'0 0.0
2017-Oct-08 05:28N 33°45' W 118°07'0 0.0
2017-Oct-08 04:58N 33°45' W 118°07'0 0.0
2017-Oct-08 04:28N 33°45' W 118°07'0 0.0
2017-Oct-08 02:52N 33°45' W 118°07'0 0.0
2017-Oct-08 02:10N 33°45' W 118°07'0 0.0
2017-Oct-08 01:55N 33°45' W 118°07'0 0.0
2017-Oct-08 01:25N 33°45' W 118°07'0 0.0
2017-Oct-08 00:58N 33°45' W 118°07'0 0.0
2017-Oct-08 00:28N 33°45' W 118°07'0 0.0
2017-Oct-07 23:58N 33°45' W 118°07'0 0.0
2017-Oct-07 23:25N 33°45' W 118°07'0 0.0
2017-Oct-07 22:52N 33°45' W 118°07'0 0.0
2017-Oct-07 22:25N 33°45' W 118°07'0 0.0
2017-Oct-07 21:58N 33°45' W 118°07'0 0.0
2017-Oct-07 21:22N 33°45' W 118°07'0 0.0
2017-Oct-07 20:58N 33°45' W 118°07'0 0.0
2017-Oct-07 20:28N 33°45' W 118°07'0 0.0
2017-Oct-07 19:58N 33°45' W 118°07'0 0.0
2017-Oct-07 13:55N 33°45' W 118°07'0 0.0
2017-Oct-07 13:25N 33°45' W 118°07'0 0.0
2017-Oct-07 12:58N 33°45' W 118°07'0 0.0
2017-Oct-07 11:52N 33°45' W 118°07'0 0.0
2017-Oct-07 11:25N 33°45' W 118°07'0 0.0
2017-Oct-07 10:58N 33°45' W 118°07'0 0.0
2017-Oct-07 10:28N 33°45' W 118°07'0 0.0
2017-Oct-07 09:58N 33°45' W 118°07'0 0.0
2017-Oct-07 09:28N 33°45' W 118°07'0 0.0
2017-Oct-07 08:55N 33°45' W 118°07'0 0.0
2017-Oct-07 08:28N 33°45' W 118°07'0 0.0
2017-Oct-07 07:58N 33°45' W 118°07'0 0.0
2017-Oct-07 07:28N 33°45' W 118°07'0 0.0
2017-Oct-07 06:58N 33°45' W 118°07'0 0.0
2017-Oct-07 06:28N 33°45' W 118°07'0 0.0
2017-Oct-07 05:58N 33°45' W 118°07'0 0.0
2017-Oct-07 05:28N 33°45' W 118°07'0 0.0
2017-Oct-07 04:58N 33°45' W 118°07'0 0.0
2017-Oct-07 03:25N 33°45' W 118°07'0 0.0
2017-Oct-07 02:58N 33°45' W 118°07'0 0.0
2017-Oct-07 02:28N 33°45' W 118°07'0 0.0
2017-Oct-07 01:58N 33°45' W 118°07'0 0.0
2017-Oct-07 01:28N 33°45' W 118°07'0 0.0
2017-Oct-07 00:58N 33°45' W 118°07'0 0.0
2017-Oct-07 00:28N 33°45' W 118°07'0 0.0
2017-Oct-06 23:58N 33°45' W 118°07'0 0.0
2017-Oct-06 23:28N 33°45' W 118°07'0 0.0
2017-Oct-06 22:55N 33°45' W 118°07'0 0.0
2017-Oct-06 22:28N 33°45' W 118°07'0 0.0
2017-Oct-06 21:58N 33°45' W 118°07'0 0.0
2017-Oct-06 21:28N 33°45' W 118°07'0 0.0
2017-Oct-06 20:58N 33°45' W 118°07'0 0.0
2017-Oct-06 20:28N 33°45' W 118°07'0 0.0
2017-Oct-06 19:58N 33°45' W 118°07'0 0.0
2017-Oct-06 19:28N 33°45' W 118°07'0 0.0
2017-Oct-06 18:34N 33°45' W 118°07'0 0.0
2017-Oct-06 17:16N 33°45' W 118°07'0 0.0
2017-Oct-06 16:10N 33°45' W 118°07'0 0.0
2017-Oct-06 15:58N 33°45' W 118°07'0 0.0
2017-Oct-06 15:04N 33°45' W 118°07'0 0.1
2017-Oct-06 14:58N 33°45' W 118°07'0 0.0
2017-Oct-06 14:28N 33°45' W 118°07'0 0.0
2017-Oct-06 13:58N 33°45' W 118°07'0 0.0
2017-Oct-06 13:28N 33°45' W 118°07'0 0.0
2017-Oct-06 12:58N 33°45' W 118°07'0 0.0
2017-Oct-06 12:28N 33°45' W 118°07'0 0.0
2017-Oct-06 09:16N 33°45' W 118°07'0 0.0
2017-Oct-06 06:58N 33°45' W 118°07'0 0.0
2017-Oct-06 05:58N 33°45' W 118°07'0 0.0
2017-Oct-06 05:28N 33°45' W 118°07'0 0.0
2017-Oct-06 04:52N 33°45' W 118°07'0 0.0
2017-Oct-06 04:28N 33°45' W 118°07'0 0.0
2017-Oct-06 03:58N 33°45' W 118°07'0 0.0
2017-Oct-06 03:28N 33°45' W 118°07'0 0.0
2017-Oct-06 02:58N 33°45' W 118°07'0 0.0
2017-Oct-06 02:28N 33°45' W 118°07'0 0.0
2017-Oct-06 01:55N 33°45' W 118°07'0 0.0
2017-Oct-06 01:28N 33°45' W 118°07'0 0.0
2017-Oct-06 00:58N 33°45' W 118°07'0 0.0
2017-Oct-06 00:28N 33°45' W 118°07'0 0.0
2017-Oct-05 23:58N 33°45' W 118°07'0 0.0
2017-Oct-05 23:28N 33°45' W 118°07'0 0.0
2017-Oct-05 22:58N 33°45' W 118°07'0 0.0
2017-Oct-05 22:28N 33°45' W 118°07'0 0.0
2017-Oct-05 21:58N 33°45' W 118°07'  
Track history (hours):
 
Tides and Currents Weather Stations Pressure Air Temp Water Temp Dewpoint Dewpoint Depression Visibility Wind Speed Wind Dir Waves Ship Positions

Cabernet Sky

Owner: Buckner, Charles A, Dana Point, CA. More information available from US FCC via Universal Licensing System and Coast Guard Vessel Documentation Center.

Last reported at 2017-Oct-15 21:55 UTC. Time now 2017-Oct-16 22:47 UTC.
Position N 33°45' W 118°07'.

Length 16 m.

Type: Sailing vessel. MMSI: 367646260.

Date/timePositionNaut miles runAvg speedWind from/ knotsBaromVisibWave heightAir tempDewpointWater temp
2017-Oct-15 21:55N 33°45' W 118°07'3 5.6
2017-Oct-15 21:25N 33°43' W 118°09'3 7.1
2017-Oct-15 20:59N 33°41' W 118°12'20 7.0
2017-Oct-15 18:11N 33°28' W 118°30'1 0.1
2017-Oct-14 21:51N 33°27' W 118°29'2 5.6
2017-Oct-14 21:30N 33°26' W 118°27'3 6.0
2017-Oct-14 21:00N 33°25' W 118°23'2 3.3
2017-Oct-14 20:30N 33°24' W 118°22'0 0.4
2017-Oct-14 20:00N 33°24' W 118°22'0 0.0
2017-Oct-14 19:30N 33°24' W 118°22'0 0.0
2017-Oct-14 17:33N 33°24' W 118°22'0 0.0
2017-Oct-14 17:21N 33°24' W 118°22'0 0.0
2017-Oct-14 16:09N 33°24' W 118°22'0 0.0
2017-Oct-14 14:57N 33°24' W 118°22'0 0.0
2017-Oct-14 14:21N 33°24' W 118°22'0 0.0
2017-Oct-14 13:51N 33°24' W 118°22'0 0.0
2017-Oct-14 13:30N 33°24' W 118°22'0 0.0
2017-Oct-14 13:00N 33°24' W 118°22'0 0.0
2017-Oct-14 12:30N 33°24' W 118°22'0 0.0
2017-Oct-14 12:00N 33°24' W 118°22'0 0.0
2017-Oct-14 11:27N 33°24' W 118°22'0 0.0
2017-Oct-14 10:54N 33°24' W 118°22'0 0.0
2017-Oct-14 10:30N 33°24' W 118°22'0 0.0
2017-Oct-14 09:51N 33°24' W 118°22'0 0.0
2017-Oct-14 09:30N 33°24' W 118°22'0 0.0
2017-Oct-14 09:00N 33°24' W 118°22'0 0.0
2017-Oct-14 08:30N 33°24' W 118°22'0 0.0
2017-Oct-14 08:00N 33°24' W 118°22'0 0.0
2017-Oct-14 07:26N 33°24' W 118°22'0 0.0
2017-Oct-14 06:53N 33°24' W 118°22'0 0.0
2017-Oct-14 05:41N 33°24' W 118°22'0 0.0
2017-Oct-14 05:23N 33°24' W 118°22'0 0.0
2017-Oct-14 04:59N 33°24' W 118°22'0 0.0
2017-Oct-14 04:29N 33°24' W 118°22'0 0.0
2017-Oct-14 03:59N 33°24' W 118°22'0 0.0
2017-Oct-14 03:27N 33°24' W 118°22'0 0.0
2017-Oct-14 03:00N 33°24' W 118°22'0 0.0
2017-Oct-14 02:27N 33°24' W 118°22'0 0.0
2017-Oct-14 01:51N 33°24' W 118°22'0 0.0
2017-Oct-14 01:03N 33°24' W 118°22'0 0.1
2017-Oct-14 00:57N 33°24' W 118°22'0 0.1
2017-Oct-13 23:39N 33°24' W 118°22'1 4.9
2017-Oct-13 23:30N 33°25' W 118°21'3 5.2
2017-Oct-13 23:00N 33°27' W 118°20'4 6.2
2017-Oct-13 22:23N 33°30' W 118°18'3 6.9
2017-Oct-13 21:59N 33°33' W 118°16'3 5.9
2017-Oct-13 21:29N 33°35' W 118°14'3 4.1
2017-Oct-13 20:51N 33°37' W 118°12'1 4.0
2017-Oct-13 20:30N 33°38' W 118°11'2 4.5
2017-Oct-13 19:57N 33°40' W 118°10'2 4.5
2017-Oct-13 19:27N 33°42' W 118°09'3 0.5
2017-Oct-13 12:34N 33°45' W 118°07'0 0.0
2017-Oct-13 11:10N 33°45' W 118°07'0 0.0
2017-Oct-13 10:52N 33°45' W 118°07'0 0.0
2017-Oct-11 23:22N 33°45' W 118°07'0 0.0
2017-Oct-11 22:52N 33°45' W 118°07'0 0.0
2017-Oct-10 23:58N 33°45' W 118°07'0 0.0
2017-Oct-10 23:28N 33°45' W 118°07'0 0.0
2017-Oct-10 22:58N 33°45' W 118°07'0 0.0
2017-Oct-10 22:28N 33°45' W 118°07'0 0.0
2017-Oct-10 21:55N 33°45' W 118°07'0 0.0
2017-Oct-10 21:28N 33°45' W 118°07'0 0.0
2017-Oct-10 20:55N 33°45' W 118°07'0 0.0
2017-Oct-10 20:25N 33°45' W 118°07'0 0.0
2017-Oct-10 19:58N 33°45' W 118°07'0 0.0
2017-Oct-10 19:28N 33°45' W 118°07'0 0.0
2017-Oct-10 18:55N 33°45' W 118°07'0 0.0
2017-Oct-10 18:28N 33°45' W 118°07'0 0.0
2017-Oct-10 17:58N 33°45' W 118°07'0 0.0
2017-Oct-10 17:28N 33°45' W 118°07'0 0.0
2017-Oct-10 16:58N 33°45' W 118°07'0 0.0
2017-Oct-10 16:28N 33°45' W 118°07'0 0.0
2017-Oct-10 15:58N 33°45' W 118°07'0 0.0
2017-Oct-10 15:28N 33°45' W 118°07'0 0.0
2017-Oct-10 14:58N 33°45' W 118°07'0 0.0
2017-Oct-10 13:58N 33°45' W 118°07'0 0.0
2017-Oct-10 13:10N 33°45' W 118°07'0 0.0
2017-Oct-10 12:55N 33°45' W 118°07'0 0.0
2017-Oct-10 12:28N 33°45' W 118°07'0 0.0
2017-Oct-10 11:58N 33°45' W 118°07'0 0.0
2017-Oct-10 11:28N 33°45' W 118°07'0 0.0
2017-Oct-10 10:58N 33°45' W 118°07'0 0.0
2017-Oct-10 10:28N 33°45' W 118°07'0 0.0
2017-Oct-10 09:58N 33°45' W 118°07'0 0.0
2017-Oct-10 09:31N 33°45' W 118°07'0 0.0
2017-Oct-10 08:28N 33°45' W 118°07'0 0.0
2017-Oct-10 07:49N 33°45' W 118°07'0 0.0
2017-Oct-10 07:28N 33°45' W 118°07'0 0.0
2017-Oct-10 06:52N 33°45' W 118°07'0 0.0
2017-Oct-10 06:22N 33°45' W 118°07'0 0.0
2017-Oct-10 05:58N 33°45' W 118°07'0 0.0
2017-Oct-10 05:28N 33°45' W 118°07'0 0.0
2017-Oct-10 04:55N 33°45' W 118°07'0 0.0
2017-Oct-10 04:28N 33°45' W 118°07'0 0.0
2017-Oct-10 03:58N 33°45' W 118°07'0 0.0
2017-Oct-10 03:28N 33°45' W 118°07'0 0.0
2017-Oct-10 02:58N 33°45' W 118°07'0 0.0
2017-Oct-10 02:28N 33°45' W 118°07'0 0.0
2017-Oct-10 01:58N 33°45' W 118°07'0 0.0
2017-Oct-10 01:28N 33°45' W 118°07'0 0.0
2017-Oct-10 00:58N 33°45' W 118°07'0 0.0
2017-Oct-10 00:28N 33°45' W 118°07'0 0.0
2017-Oct-09 23:58N 33°45' W 118°07'0 0.0
2017-Oct-09 23:28N 33°45' W 118°07'0 0.0
2017-Oct-09 22:58N 33°45' W 118°07'0 0.0
2017-Oct-09 22:28N 33°45' W 118°07'0 0.0
2017-Oct-08 15:43N 33°45' W 118°07'0 0.0
2017-Oct-08 15:28N 33°45' W 118°07'0 0.0
2017-Oct-08 14:58N 33°45' W 118°07'0 0.0
2017-Oct-08 14:28N 33°45' W 118°07'0 0.0
2017-Oct-08 11:37N 33°45' W 118°07'0 0.0
2017-Oct-08 11:25N 33°45' W 118°07'0 0.0
2017-Oct-08 10:58N 33°45' W 118°07'0 0.0
2017-Oct-08 10:25N 33°45' W 118°07'0 0.0
2017-Oct-08 09:58N 33°45' W 118°07'0 0.0
2017-Oct-08 09:28N 33°45' W 118°07'0 0.0
2017-Oct-08 07:58N 33°45' W 118°07'0 0.0
2017-Oct-08 07:28N 33°45' W 118°07'0 0.0
2017-Oct-08 06:58N 33°45' W 118°07'0 0.0
2017-Oct-08 06:28N 33°45' W 118°07'0 0.0
2017-Oct-08 05:58N 33°45' W 118°07'0 0.0
2017-Oct-08 05:28N 33°45' W 118°07'0 0.0
2017-Oct-08 04:58N 33°45' W 118°07'0 0.0
2017-Oct-08 04:28N 33°45' W 118°07'0 0.0
2017-Oct-08 02:52N 33°45' W 118°07'0 0.0
2017-Oct-08 02:10N 33°45' W 118°07'0 0.0
2017-Oct-08 01:55N 33°45' W 118°07'0 0.0
2017-Oct-08 01:25N 33°45' W 118°07'0 0.0
2017-Oct-08 00:58N 33°45' W 118°07'0 0.0
2017-Oct-08 00:28N 33°45' W 118°07'0 0.0
2017-Oct-07 23:58N 33°45' W 118°07'0 0.0
2017-Oct-07 23:25N 33°45' W 118°07'0 0.0
2017-Oct-07 22:52N 33°45' W 118°07'0 0.0
2017-Oct-07 22:25N 33°45' W 118°07'0 0.0
2017-Oct-07 21:58N 33°45' W 118°07'0 0.0
2017-Oct-07 21:22N 33°45' W 118°07'0 0.0
2017-Oct-07 20:58N 33°45' W 118°07'0 0.0
2017-Oct-07 20:28N 33°45' W 118°07'0 0.0
2017-Oct-07 19:58N 33°45' W 118°07'0 0.0
2017-Oct-07 13:55N 33°45' W 118°07'0 0.0
2017-Oct-07 13:25N 33°45' W 118°07'0 0.0
2017-Oct-07 12:58N 33°45' W 118°07'0 0.0
2017-Oct-07 11:52N 33°45' W 118°07'0 0.0
2017-Oct-07 11:25N 33°45' W 118°07'0 0.0
2017-Oct-07 10:58N 33°45' W 118°07'0 0.0
2017-Oct-07 10:28N 33°45' W 118°07'0 0.0
2017-Oct-07 09:58N 33°45' W 118°07'0 0.0
2017-Oct-07 09:28N 33°45' W 118°07'0 0.0
2017-Oct-07 08:55N 33°45' W 118°07'0 0.0
2017-Oct-07 08:28N 33°45' W 118°07'0 0.0
2017-Oct-07 07:58N 33°45' W 118°07'0 0.0
2017-Oct-07 07:28N 33°45' W 118°07'0 0.0
2017-Oct-07 06:58N 33°45' W 118°07'0 0.0
2017-Oct-07 06:28N 33°45' W 118°07'0 0.0
2017-Oct-07 05:58N 33°45' W 118°07'0 0.0
2017-Oct-07 05:28N 33°45' W 118°07'0 0.0
2017-Oct-07 04:58N 33°45' W 118°07'0 0.0
2017-Oct-07 03:25N 33°45' W 118°07'0 0.0
2017-Oct-07 02:58N 33°45' W 118°07'0 0.0
2017-Oct-07 02:28N 33°45' W 118°07'0 0.0
2017-Oct-07 01:58N 33°45' W 118°07'0 0.0
2017-Oct-07 01:28N 33°45' W 118°07'0 0.0
2017-Oct-07 00:58N 33°45' W 118°07'0 0.0
2017-Oct-07 00:28N 33°45' W 118°07'0 0.0
2017-Oct-06 23:58N 33°45' W 118°07'0 0.0
2017-Oct-06 23:28N 33°45' W 118°07'0 0.0
2017-Oct-06 22:55N 33°45' W 118°07'0 0.0
2017-Oct-06 22:28N 33°45' W 118°07'0 0.0
2017-Oct-06 21:58N 33°45' W 118°07'0 0.0
2017-Oct-06 21:28N 33°45' W 118°07'0 0.0
2017-Oct-06 20:58N 33°45' W 118°07'0 0.0
2017-Oct-06 20:28N 33°45' W 118°07'0 0.0
2017-Oct-06 19:58N 33°45' W 118°07'0 0.0
2017-Oct-06 19:28N 33°45' W 118°07'0 0.0
2017-Oct-06 18:34N 33°45' W 118°07'0 0.0
2017-Oct-06 17:16N 33°45' W 118°07'0 0.0
2017-Oct-06 16:10N 33°45' W 118°07'0 0.0
2017-Oct-06 15:58N 33°45' W 118°07'0 0.0
2017-Oct-06 15:04N 33°45' W 118°07'0 0.1
2017-Oct-06 14:58N 33°45' W 118°07'0 0.0
2017-Oct-06 14:28N 33°45' W 118°07'0 0.0
2017-Oct-06 13:58N 33°45' W 118°07'0 0.0
2017-Oct-06 13:28N 33°45' W 118°07'0 0.0
2017-Oct-06 12:58N 33°45' W 118°07'0 0.0
2017-Oct-06 12:28N 33°45' W 118°07'0 0.0
2017-Oct-06 09:16N 33°45' W 118°07'0 0.0
2017-Oct-06 06:58N 33°45' W 118°07'0 0.0
2017-Oct-06 05:58N 33°45' W 118°07'0 0.0
2017-Oct-06 05:28N 33°45' W 118°07'0 0.0
2017-Oct-06 04:52N 33°45' W 118°07'0 0.0
2017-Oct-06 04:28N 33°45' W 118°07'0 0.0
2017-Oct-06 03:58N 33°45' W 118°07'0 0.0
2017-Oct-06 03:28N 33°45' W 118°07'0 0.0
2017-Oct-06 02:58N 33°45' W 118°07'0 0.0
2017-Oct-06 02:28N 33°45' W 118°07'0 0.0
2017-Oct-06 01:55N 33°45' W 118°07'0 0.0
2017-Oct-06 01:28N 33°45' W 118°07'0 0.0
2017-Oct-06 00:58N 33°45' W 118°07'0 0.0
2017-Oct-06 00:28N 33°45' W 118°07'0 0.0
2017-Oct-05 23:58N 33°45' W 118°07'0 0.0
2017-Oct-05 23:28N 33°45' W 118°07'0 0.0
2017-Oct-05 22:58N 33°45' W 118°07'0 0.0
2017-Oct-05 22:28N 33°45' W 118°07'0 0.0
2017-Oct-05 21:58N 33°45' W 118°07'  

Dump ship's entire track history